Time;durP1;ratioP1;P1;durP2;ratioP2;P2;SDS_P1;SDS_P2;PMS_P1;PMS_P2;Temp;Humidity;BMP_temperature;BMP_pressure;BME280_temperature;BME280_humidity;BME280_pressure;Samples;Min_cycle;Max_cycle;Signal;HPM_P1;HPM_P2
2023/05/14 00:02:31;;;;;;;22.77;12.55;;;;;;;;;;6133535;23;20024;-94
2023/05/14 00:05:16;;;;;;;17.35;11.55;;;;;;;;;;6132372;23;20083;-94
2023/05/14 00:08:00;;;;;;;16.67;10.90;;;;;;;;;;6133801;23;20459;-93
2023/05/14 00:10:48;;;;;;;18.88;11.43;;;;;;;;;;6109132;23;20022;-94
2023/05/14 00:13:33;;;;;;;20.02;11.65;;;;;;;;;;6137733;23;20092;-93
2023/05/14 00:16:18;;;;;;;21.15;11.38;;;;;;;;;;6144375;23;20064;-91
2023/05/14 00:19:02;;;;;;;21.38;12.70;;;;;;;;;;6133572;23;20015;-90
2023/05/14 00:21:47;;;;;;;22.27;12.57;;;;;;;;;;6133631;23;20045;-89
2023/05/14 00:24:32;;;;;;;18.25;11.80;;;;;;;;;;6133461;23;20020;-89
2023/05/14 00:27:16;;;;;;;21.15;11.75;;;;;;;;;;6132374;23;20037;-90
2023/05/14 00:30:01;;;;;;;23.15;12.77;;;;;;;;;;6132108;23;20069;-89
2023/05/14 00:32:45;;;;;;;22.33;12.40;;;;;;;;;;6131852;23;20024;-91
2023/05/14 00:35:30;;;;;;;22.77;12.15;;;;;;;;;;6131386;23;20113;-91
2023/05/14 00:38:18;;;;;;;19.08;12.23;;;;;;;;;;6131115;23;20013;-91
2023/05/14 00:41:03;;;;;;;18.13;11.70;;;;;;;;;;6153938;23;20063;-90
2023/05/14 00:43:47;;;;;;;25.83;12.13;;;;;;;;;;6153498;23;20023;-91
2023/05/14 00:46:32;;;;;;;19.92;12.18;;;;;;;;;;6131307;23;20528;-89
2023/05/14 00:49:16;;;;;;;20.38;12.60;;;11.70;99.90;;;;;;6131289;23;20336;-90
2023/05/14 00:52:02;;;;;;;16.27;11.63;;;;;;;;;;6153730;23;20017;-91
2023/05/14 00:54:47;;;;;;;21.42;10.60;;;;;;;;;;6153687;23;20088;-90
2023/05/14 00:57:33;;;;;;;21.05;11.93;;;;;;;;;;6131242;23;20017;-91
2023/05/14 01:00:17;;;;;;;19.73;11.77;;;;;;;;;;6153209;23;20017;-90
2023/05/14 01:03:03;;;;;;;18.08;11.20;;;;;;;;;;6153685;23;20455;-90
2023/05/14 01:05:54;;;;;;;21.23;11.70;;;;;;;;;;6131806;23;20109;-91
2023/05/14 01:08:45;;;;;;;23.83;12.73;;;;;;;;;;6131166;23;20020;-89
2023/05/14 01:11:33;;;;;;;19.77;10.77;;;;;;;;;;6131055;23;20017;-90
2023/05/14 01:14:34;;;;;;;20.60;11.07;;;11.30;99.90;;;;;;6130837;23;20341;-91
2023/05/14 01:17:20;;;;;;;20.35;11.02;;;;;;;;;;6153128;23;20062;-90
2023/05/14 01:20:06;;;;;;;22.83;11.30;;;;;;;;;;6131827;23;20017;-91
2023/05/14 01:22:50;;;;;;;15.57;10.70;;;;;;;;;;6153771;23;20024;-92
2023/05/14 01:25:36;;;;;;;16.33;10.35;;;11.20;99.90;;;;;;6131120;23;20023;-91
2023/05/14 01:28:34;;;;;;;19.75;11.20;;;11.20;99.90;;;;;;6131279;23;20020;-92
2023/05/14 01:31:24;;;;;;;20.13;11.13;;;;;;;;;;6152993;23;20048;-90
2023/05/14 01:34:11;;;;;;;19.42;9.95;;;;;;;;;;6131929;23;20471;-91
2023/05/14 01:36:57;;;;;;;18.88;10.45;;;11.00;99.90;;;;;;6131855;23;20060;-92
2023/05/14 01:39:42;;;;;;;19.17;11.32;;;;;;;;;;6132141;23;20020;-91
2023/05/14 01:42:27;;;;;;;18.50;11.38;;;;;;;;;;6133005;23;20052;-91
2023/05/14 01:45:12;;;;;;;14.25;10.55;;;;;;;;;;6133298;23;20471;-92
2023/05/14 01:47:57;;;;;;;17.70;9.98;;;;;;;;;;6133349;23;20064;-91
2023/05/14 01:50:41;;;;;;;16.20;11.00;;;;;;;;;;6154874;23;20594;-90
2023/05/14 01:53:26;;;;;;;23.48;10.98;;;;;;;;;;6154769;23;20020;-92
2023/05/14 01:56:10;;;;;;;17.50;10.13;;;;;;;;;;6133341;23;20416;-91
2023/05/14 01:58:55;;;;;;;17.92;10.88;;;;;;;;;;6133397;23;20036;-91
2023/05/14 02:01:40;;;;;;;17.63;10.20;;;;;;;;;;6133047;23;20064;-91
2023/05/14 02:04:24;;;;;;;20.70;11.60;;;;;;;;;;6132939;23;20049;-90
2023/05/14 02:07:08;;;;;;;21.65;11.32;;;;;;;;;;6133330;23;20060;-94
2023/05/14 02:09:53;;;;;;;18.02;10.15;;;;;;;;;;6132405;23;20100;-91
2023/05/14 02:12:38;;;;;;;19.45;11.07;;;;;;;;;;6132368;23;20112;-92
2023/05/14 02:15:22;;;;;;;18.02;10.18;;;;;;;;;;6133459;23;20467;-91
2023/05/14 02:18:07;;;;;;;17.85;10.90;;;;;;;;;;6133794;23;20037;-92
2023/05/14 02:20:51;;;;;;;18.83;10.90;;;;;;;;;;6134310;23;20041;-92
2023/05/14 02:23:36;;;;;;;23.83;11.77;;;;;;;;;;6155227;23;20060;-95
2023/05/14 02:26:23;;;;;;;16.55;10.80;;;;;;;;;;6134091;23;20016;-93
2023/05/14 02:29:11;;;;;;;19.80;12.13;;;;;;;;;;6155867;23;20503;-92
2023/05/14 02:31:56;;;;;;;16.85;10.38;;;;;;;;;;6155701;23;20669;-93
2023/05/14 02:34:40;;;;;;;18.63;11.10;;;;;;;;;;6132663;23;20448;-90
2023/05/14 02:37:25;;;;;;;18.02;10.82;;;;;;;;;;6133366;23;20029;-91
2023/05/14 02:40:10;;;;;;;17.63;10.02;;;;;;;;;;6133063;23;20020;-92
2023/05/14 02:42:54;;;;;;;28.55;11.55;;;;;;;;;;6154880;23;20021;-92
2023/05/14 02:45:39;;;;;;;17.33;10.10;;;;;;;;;;6132268;23;20044;-92
2023/05/14 02:48:24;;;;;;;18.73;11.27;;;;;;;;;;6133211;23;20055;-92
2023/05/14 02:51:09;;;;;;;23.60;11.50;;;;;;;;;;6133292;23;20101;-92
2023/05/14 02:53:54;;;;;;;17.80;10.68;;;;;;;;;;6154392;23;20483;-90
2023/05/14 02:56:39;;;;;;;16.20;11.23;;;;;;;;;;6132396;23;20024;-91
2023/05/14 02:59:24;;;;;;;21.08;11.20;;;;;;;;;;6132784;23;20061;-90
2023/05/14 03:02:08;;;;;;;17.13;9.73;;;;;;;;;;6132666;23;20020;-90
2023/05/14 03:04:53;;;;;;;19.25;10.60;;;;;;;;;;6131606;23;20032;-90
2023/05/14 03:07:38;;;;;;;14.68;10.75;;;;;;;;;;6153847;23;20120;-91
2023/05/14 03:10:22;;;;;;;15.45;10.82;;;;;;;;;;6132676;23;20060;-91
2023/05/14 03:13:09;;;;;;;17.55;10.32;;;;;;;;;;6132530;23;20024;-91
2023/05/14 03:15:55;;;;;;;19.20;9.90;;;;;;;;;;6131929;23;20504;-91
2023/05/14 03:18:40;;;;;;;18.75;10.45;;;;;;;;;;6152867;23;20025;-91
2023/05/14 03:21:24;;;;;;;17.60;10.07;;;;;;;;;;6132559;23;20340;-91
2023/05/14 03:24:09;;;;;;;21.45;11.07;;;;;;;;;;6132676;23;20020;-91
2023/05/14 03:26:56;;;;;;;17.50;10.30;;;;;;;;;;6153746;23;20032;-91
2023/05/14 03:29:41;;;;;;;14.88;9.38;;;;;;;;;;6131903;23;20092;-91
2023/05/14 03:32:26;;;;;;;16.90;10.68;;;;;;;;;;6153098;23;20016;-91
2023/05/14 03:35:10;;;;;;;18.17;10.23;;;;;;;;;;6132512;23;20068;-92
2023/05/14 03:37:58;;;;;;;16.10;10.40;;;;;;;;;;6153948;23;20024;-91
2023/05/14 03:40:43;;;;;;;21.30;11.07;;;;;;;;;;6132433;23;20024;-91
2023/05/14 03:43:28;;;;;;;19.15;10.48;;;;;;;;;;6132161;23;20020;-90
2023/05/14 03:46:12;;;;;;;17.42;10.40;;;;;;;;;;6132335;23;20064;-92
2023/05/14 03:48:57;;;;;;;23.17;12.68;;;;;;;;;;6131643;23;20634;-91
2023/05/14 03:51:41;;;;;;;25.75;12.07;;;;;;;;;;6131495;23;20064;-91
2023/05/14 03:54:26;;;;;;;17.35;10.07;;;;;;;;;;6132325;23;20064;-91
2023/05/14 03:57:10;;;;;;;19.05;10.65;;;;;;;;;;6132276;23;20504;-91
2023/05/14 03:59:55;;;;;;;22.90;10.68;;;;;;;;;;6131556;23;20345;-93
2023/05/14 04:02:40;;;;;;;20.73;10.90;;;;;;;;;;6131738;23;20023;-90
2023/05/14 04:05:24;;;;;;;21.45;11.50;;;;;;;;;;6132076;23;20339;-91
2023/05/14 04:08:09;;;;;;;20.10;10.80;;;;;;;;;;6132455;23;20024;-92
2023/05/14 04:10:54;;;;;;;21.90;11.60;;;;;;;;;;6131451;23;20072;-90
2023/05/14 04:13:39;;;;;;;21.48;11.18;;;;;;;;;;6154218;23;20024;-91
2023/05/14 04:16:23;;;;;;;26.75;12.50;;;;;;;;;;6131910;23;20559;-90
2023/05/14 04:19:07;;;;;;;24.88;11.57;;;;;;;;;;6132118;23;20017;-91
2023/05/14 04:21:52;;;;;;;24.90;12.38;;;;;;;;;;6153784;23;20040;-92
2023/05/14 04:24:37;;;;;;;28.73;12.02;;;;;;;;;;6154050;23;20036;-92
2023/05/14 04:27:22;;;;;;;18.83;11.50;;;;;;;;;;6154267;23;20060;-91
2023/05/14 04:30:07;;;;;;;21.98;12.45;;;;;;;;;;6131461;23;20017;-91
2023/05/14 04:32:51;;;;;;;23.17;12.23;;;;;;;;;;6131358;23;20071;-91
2023/05/14 04:35:36;;;;;;;25.52;12.70;;;;;;;;;;6154015;23;20498;-91
2023/05/14 04:38:20;;;;;;;21.40;12.40;;;;;;;;;;6153893;23;20060;-90
2023/05/14 04:41:06;;;;;;;20.65;12.50;;;;;;;;;;6153473;23;20048;-91
2023/05/14 04:43:50;;;;;;;28.63;13.98;;;;;;;;;;6153079;23;20063;-91
2023/05/14 04:46:35;;;;;;;22.42;12.50;;;;;;;;;;6153814;23;20340;-90
2023/05/14 04:49:20;;;;;;;23.20;12.85;;;;;;;;;;6153883;23;20064;-91
2023/05/14 04:52:05;;;;;;;24.70;12.80;;;;;;;;;;6153043;23;20012;-90
2023/05/14 04:54:50;;;;;;;23.58;14.10;;;;;;;;;;6131186;23;20392;-91
2023/05/14 04:57:35;;;;;;;27.55;13.27;;;;;;;;;;6153971;23;20024;-91
2023/05/14 05:00:20;;;;;;;26.25;13.40;;;;;;;;;;6155735;23;20020;-94
2023/05/14 05:03:05;;;;;;;27.25;13.85;;;;;;;;;;6136603;23;20092;-94
2023/05/14 05:05:50;;;;;;;27.50;13.35;;;;;;;;;;6131881;23;20080;-91
2023/05/14 05:08:36;;;;;;;28.40;14.40;;;11.10;99.90;;;;;;6154294;23;20037;-94
2023/05/14 05:11:23;;;;;;;24.85;13.73;;;;;;;;;;6132857;23;20044;-94
2023/05/14 05:14:08;;;;;;;26.38;13.98;;;;;;;;;;6132560;23;20048;-94
2023/05/14 05:16:54;;;;;;;27.80;14.00;;;;;;;;;;6133959;23;20104;-91
2023/05/14 05:19:39;;;;;;;27.90;15.57;;;;;;;;;;6156342;23;20029;-93
2023/05/14 05:22:24;;;;;;;30.15;15.60;;;;;;;;;;6134222;23;20064;-93
2023/05/14 05:25:12;;;;;;;24.75;15.13;;;;;;;;;;6133169;23;20028;-92
2023/05/14 05:27:56;;;;;;;27.63;15.25;;;;;;;;;;6155545;23;20012;-95
2023/05/14 05:30:44;;;;;;;31.95;15.88;;;;;;;;;;6134470;23;20072;-93
2023/05/14 05:33:29;;;;;;;26.80;14.25;;;;;;;;;;6156102;23;20036;-92
2023/05/14 05:36:13;;;;;;;26.15;14.85;;;;;;;;;;6155524;23;20850;-92
2023/05/14 05:38:58;;;;;;;32.78;17.48;;;;;;;;;;6155337;23;20021;-91
2023/05/14 05:41:43;;;;;;;29.75;14.43;;;;;;;;;;6133172;23;20140;-92
2023/05/14 05:44:28;;;;;;;25.75;15.57;;;;;;;;;;6155525;23;20016;-90
2023/05/14 05:47:12;;;;;;;30.40;14.40;;;;;;;;;;6132880;23;20037;-90
2023/05/14 05:49:57;;;;;;;28.42;14.85;;;;;;;;;;6154979;23;20016;-90
2023/05/14 05:52:44;;;;;;;25.98;14.73;;;;;;;;;;6133251;23;20450;-90
2023/05/14 05:55:29;;;;;;;30.05;14.02;;;;;;;;;;6133243;23;20024;-90
2023/05/14 05:58:16;;;;;;;29.90;13.88;;;;;;;;;;6154817;23;20071;-90
2023/05/14 06:01:00;;;;;;;28.63;12.80;;;;;;;;;;6154636;23;20021;-91
2023/05/14 06:03:44;;;;;;;29.48;12.82;;;;;;;;;;6133007;23;20058;-90
2023/05/14 06:06:31;;;;;;;16.55;10.93;;;;;;;;;;6155473;23;20021;-91
2023/05/14 06:09:19;;;;;;;21.23;11.00;;;;;;;;;;6132794;23;20509;-91
2023/05/14 06:12:04;;;;;;;23.77;10.93;;;;;;;;;;6132385;23;20075;-90
2023/05/14 06:14:51;;;;;;;20.70;9.68;;;;;;;;;;6133297;23;20084;-91
2023/05/14 06:17:36;;;;;;;25.17;13.27;;;;;;;;;;6153762;23;20064;-91
2023/05/14 06:20:20;;;;;;;15.77;9.65;;;;;;;;;;6132479;23;20107;-91
2023/05/14 06:23:10;;;;;;;26.67;10.02;;;;;;;;;;6154852;23;20020;-91
2023/05/14 06:25:54;;;;;;;19.02;9.10;;;;;;;;;;6133457;23;20021;-93
2023/05/14 06:28:39;;;;;;;25.35;10.95;;;;;;;;;;6154123;23;20372;-89
2023/05/14 06:31:23;;;;;;;20.52;8.55;;;;;;;;;;6132906;23;20049;-90
2023/05/14 06:34:08;;;;;;;20.17;8.52;;;;;;;;;;6153318;23;20041;-90
2023/05/14 06:36:52;;;;;;;15.95;7.28;;;;;;;;;;6133142;23;20024;-90
2023/05/14 06:39:37;;;;;;;18.67;6.95;;;;;;;;;;6154779;23;20387;-90
2023/05/14 06:42:21;;;;;;;15.02;7.72;;;;;;;;;;6154680;23;20020;-90
2023/05/14 06:45:06;;;;;;;14.88;7.50;;;;;;;;;;6131481;23;20032;-92
2023/05/14 06:47:51;;;;;;;16.13;7.95;;;;;;;;;;6155602;23;20023;-92
2023/05/14 06:50:36;;;;;;;22.10;7.75;;;;;;;;;;6153113;23;20018;-91
2023/05/14 06:53:20;;;;;;;17.08;6.95;;;;;;;;;;6134551;23;20016;-93
2023/05/14 06:56:05;;;;;;;18.55;7.40;;;;;;;;;;6155531;23;20016;-89
2023/05/14 06:58:50;;;;;;;19.20;6.88;;;;;;;;;;6135147;23;20040;-91
2023/05/14 07:01:34;;;;;;;18.02;7.50;;;;;;;;;;6157277;23;20348;-91
2023/05/14 07:04:19;;;;;;;17.60;6.93;;;;;;;;;;6155078;23;20040;-92
2023/05/14 07:07:04;;;;;;;13.27;5.82;;;;;;;;;;6124354;23;20028;-93
2023/05/14 07:09:49;;;;;;;17.48;6.22;;;;;;;;;;6103135;23;20021;-92
2023/05/14 07:12:34;;;;;;;18.10;6.35;;;;;;;;;;6104287;23;20118;-92
2023/05/14 07:15:19;;;;;;;15.75;6.95;;;;;;;;;;6124860;23;20025;-92
2023/05/14 07:18:03;;;;;;;18.70;6.57;;;;;;;;;;6103293;23;20069;-92
2023/05/14 07:20:48;;;;;;;13.35;6.15;;;;;;;;;;6125118;23;20052;-92
2023/05/14 07:23:35;;;;;;;13.60;6.22;;;16.20;99.90;;;;;;6124652;23;20463;-91
2023/05/14 07:26:20;;;;;;;13.32;6.28;;;;;;;;;;6101904;23;20025;-92
2023/05/14 07:29:04;;;;;;;9.50;5.75;;;;;;;;;;6125491;23;20017;-92
2023/05/14 07:31:49;;;;;;;16.60;6.00;;;;;;;;;;6103125;23;20038;-92
2023/05/14 07:34:33;;;;;;;11.57;5.30;;;;;;;;;;6102785;23;20020;-91
2023/05/14 07:37:18;;;;;;;14.93;5.80;;;;;;;;;;6103036;23;20045;-93
2023/05/14 07:40:03;;;;;;;11.70;4.63;;;;;;;;;;6125353;23;20037;-90
2023/05/14 07:42:48;;;;;;;21.15;5.22;;;;;;;;;;6104138;23;20017;-94
2023/05/14 07:45:33;;;;;;;12.98;5.03;;;;;;;;;;6103757;23;20732;-91
2023/05/14 07:48:25;;;;;;;11.32;4.68;;;;;;;;;;6103651;23;20097;-95
2023/05/14 07:51:10;;;;;;;15.55;5.30;;;;;;;;;;6104064;23;20462;-91
2023/05/14 07:53:55;;;;;;;11.70;5.28;;;;;;;;;;6102849;23;20105;-93
2023/05/14 07:56:40;;;;;;;12.68;5.05;;;;;;;;;;6103105;23;20531;-90
2023/05/14 07:59:24;;;;;;;13.73;4.50;;;;;;;;;;6102603;23;20097;-90
2023/05/14 08:02:12;;;;;;;10.63;6.20;;;;;;;;;;6103285;23;20017;-93
2023/05/14 08:05:00;;;;;;;15.40;5.55;;;;;;;;;;6131146;23;20024;-93
2023/05/14 08:07:44;;;;;;;17.77;5.90;;;;;;;;;;6154003;23;20020;-91
2023/05/14 08:10:29;;;;;;;12.60;5.35;;;;;;;;;;6154158;23;20017;-93
2023/05/14 08:13:13;;;;;;;11.98;5.13;;;;;;;;;;6155115;23;20035;-94
2023/05/14 08:16:00;;;;;;;13.75;6.00;;;;;;;;;;6132522;23;20051;-90
2023/05/14 08:18:47;;;;;;;16.17;4.57;;;;;;;;;;6135326;23;20036;-91
2023/05/14 08:21:34;;;;;;;12.40;5.55;;;;;;;;;;6131547;23;20032;-92
2023/05/14 08:24:19;;;;;;;12.68;5.07;;;;;;;;;;6130770;23;20071;-88
2023/05/14 08:27:04;;;;;;;14.27;4.47;;;;;;;;;;6152445;23;20516;-90
2023/05/14 08:29:51;;;;;;;14.68;4.78;;;;;;;;;;6131583;23;20047;-88
2023/05/14 08:32:37;;;;;;;9.95;5.20;;;;;;;;;;6152777;23;20016;-88
2023/05/14 08:35:24;;;;;;;13.32;5.38;;;;;;;;;;6152895;23;20064;-90
2023/05/14 08:38:09;;;;;;;12.02;5.03;;;;;;;;;;6154365;23;20033;-92
2023/05/14 08:41:29;;;;;;;12.77;4.93;;;;;;;;;;6134060;23;20431;-95
2023/05/14 08:47:44;;;;;;;12.05;5.10;;;;;;;;;;6009208;23;20104;-93
2023/05/14 08:50:34;;;;;;;11.60;4.72;;;;;;;;;;6087199;23;20012;-93
2023/05/14 08:53:20;;;;;;;12.70;5.50;;;;;;;;;;6137524;23;20001;-93
2023/05/14 08:56:05;;;;;;;13.00;5.55;;;;;;;;;;6134624;23;20072;-91
2023/05/14 08:58:49;;;;;;;12.90;5.38;;;;;;;;;;6154668;23;20092;-89
2023/05/14 09:01:34;;;;;;;11.70;5.47;;;;;;;;;;6132089;23;20020;-90
2023/05/14 09:04:21;;;;;;;13.52;5.38;;;19.20;99.90;;;;;;6153824;23;20056;-90
2023/05/14 09:07:07;;;;;;;11.43;5.88;;;;;;;;;;6154212;23;20109;-90
2023/05/14 09:09:52;;;;;;;14.35;5.22;;;;;;;;;;6133614;23;20340;-91
2023/05/14 09:12:36;;;;;;;10.85;4.93;;;;;;;;;;6153616;23;20029;-90
2023/05/14 09:15:21;;;;;;;9.70;5.53;;;;;;;;;;6133549;23;20025;-91
2023/05/14 09:18:06;;;;;;;13.52;5.80;;;;;;;;;;6156215;23;20145;-90
2023/05/14 09:20:51;;;;;;;9.90;4.88;;;;;;;;;;6135438;23;20052;-89
2023/05/14 09:23:35;;;;;;;11.77;4.55;;;;;;;;;;6134653;23;20052;-89
2023/05/14 09:26:23;;;;;;;15.10;4.80;;;;;;;;;;6133869;23;20020;-90
2023/05/14 09:29:07;;;;;;;12.98;5.20;;;;;;;;;;6133822;23;20332;-89
2023/05/14 09:31:52;;;;;;;10.45;4.90;;;;;;;;;;6154054;23;20016;-90
2023/05/14 09:34:40;;;;;;;11.25;5.07;;;;;;;;;;6154827;23;20105;-90
2023/05/14 09:37:25;;;;;;;10.82;4.70;;;;;;;;;;6155568;23;20462;-90
2023/05/14 09:40:12;;;;;;;12.32;5.43;;;;;;;;;;6154121;23;20064;-91
2023/05/14 09:43:00;;;;;;;11.38;4.68;;;;;;;;;;6133334;23;20062;-90
2023/05/14 09:45:48;;;;;;;11.82;4.20;;;;;;;;;;6154611;23;20015;-89
2023/05/14 09:48:32;;;;;;;10.50;4.70;;;;;;;;;;6154566;23;20060;-90
2023/05/14 09:51:18;;;;;;;8.85;4.70;;;;;;;;;;6133304;23;20024;-91
2023/05/14 09:54:03;;;;;;;11.45;4.97;;;;;;;;;;6155290;23;20080;-90
2023/05/14 09:56:51;;;;;;;6.43;4.20;;;;;;;;;;6132571;23;20450;-90
2023/05/14 09:59:36;;;;;;;8.93;4.90;;;;;;;;;;6132525;23;20514;-91
2023/05/14 10:02:35;;;;;;;11.50;4.85;;;;;;;;;;6133020;23;20344;-90
2023/05/14 10:05:21;;;;;;;9.27;4.97;;;;;;;;;;6155145;23;20060;-90
2023/05/14 10:08:11;;;;;;;11.80;4.95;;;;;;;;;;6132856;23;20491;-90
2023/05/14 10:10:58;;;;;;;9.15;4.63;;;;;;;;;;6132491;23;20013;-89
2023/05/14 10:13:46;;;;;;;11.13;5.10;;;;;;;;;;6132335;23;20075;-90
2023/05/14 10:16:34;;;;;;;12.35;5.63;;;;;;;;;;6132786;23;20103;-90
2023/05/14 10:19:29;;;;;;;11.98;4.82;;;;;;;;;;6155183;23;20068;-90
2023/05/14 10:22:14;;;;;;;10.98;4.60;;;;;;;;;;6133000;23;20052;-90
2023/05/14 10:25:00;;;;;;;10.07;5.05;;;;;;;;;;6132479;23;20028;-89
2023/05/14 10:27:47;;;;;;;10.65;4.43;;;;;;;;;;6132239;23;20048;-90
2023/05/14 10:30:32;;;;;;;12.43;5.03;;;;;;;;;;6154886;23;20028;-90
2023/05/14 10:33:17;;;;;;;9.48;5.15;;;;;;;;;;6132583;23;20446;-91
2023/05/14 10:36:06;;;;;;;11.70;4.78;;;;;;;;;;6132983;23;20064;-89
2023/05/14 10:38:55;;;;;;;10.27;5.10;;;;;;;;;;6132168;23;20532;-90
2023/05/14 10:41:41;;;;;;;12.38;5.63;;;;;;;;;;6132042;23;20016;-90
2023/05/14 10:44:26;;;;;;;10.20;4.82;;;;;;;;;;6154862;23;20025;-90
2023/05/14 10:47:14;;;;;;;10.20;4.82;;;;;;;;;;6132633;23;20124;-89
2023/05/14 10:49:59;;;;;;;10.43;5.45;;;;;;;;;;6154292;23;20052;-89
2023/05/14 10:52:47;;;;;;;10.52;4.47;;;;;;;;;;6153991;23;20337;-90
2023/05/14 10:55:32;;;;;;;8.45;3.90;;;;;;;;;;6154676;23;20089;-90
2023/05/14 10:58:17;;;;;;;9.95;4.65;;;;;;;;;;6132543;23;20017;-91
2023/05/14 11:01:02;;;;;;;9.45;5.05;;;;;;;;;;6131928;23;20012;-89
2023/05/14 11:03:46;;;;;;;9.25;4.78;;;;;;;;;;6131815;23;20063;-91
2023/05/14 11:06:34;;;;;;;12.70;4.10;;;;;;;;;;6132183;23;20069;-90
2023/05/14 11:09:20;;;;;;;7.50;4.07;;;;;;;;;;6154378;23;20467;-89
2023/05/14 11:12:06;;;;;;;10.88;3.90;;;;;;;;;;6132169;23;20017;-90
2023/05/14 11:14:53;;;;;;;8.60;3.53;;;;;;;;;;6152632;23;20023;-90
2023/05/14 11:17:42;;;;;;;6.10;4.28;;;;;;;;;;6132484;23;20020;-91
2023/05/14 11:20:27;;;;;;;11.32;4.90;;;;;;;;;;6132315;23;20016;-91
2023/05/14 11:23:12;;;;;;;10.45;4.68;;;;;;;;;;6154315;23;20076;-91
2023/05/14 11:25:56;;;;;;;8.70;4.72;;;;;;;;;;6132155;23;20096;-90
2023/05/14 11:28:41;;;;;;;8.68;4.82;;;;;;;;;;6131699;23;20012;-92
2023/05/14 11:31:26;;;;;;;6.05;3.58;;;;;;;;;;6132726;23;20451;-93
2023/05/14 11:34:10;;;;;;;8.65;3.85;;;;;;;;;;6154330;23;20156;-92
2023/05/14 11:36:55;;;;;;;6.65;3.90;;;;;;;;;;6152884;23;20049;-92
2023/05/14 11:39:48;;;;;;;5.35;3.83;;;;;;;;;;6154396;23;20012;-92
2023/05/14 11:42:33;;;;;;;10.57;4.05;;;;;;;;;;6132948;23;20062;-91
2023/05/14 11:45:28;;;;;;;6.45;3.50;;;;;;;;;;6132303;23;20097;-91
2023/05/14 11:48:16;;;;;;;9.68;3.78;;;;;;;;;;6132687;23;20076;-92
2023/05/14 11:51:04;;;;;;;7.30;3.47;;;;;;;;;;6153866;23;20059;-93
2023/05/14 11:53:53;;;;;;;7.38;3.70;;;;;;;;;;6153808;23;20071;-94
2023/05/14 11:56:38;;;;;;;9.30;4.25;;;;;;;;;;6132638;23;20471;-94
2023/05/14 11:59:31;;;;;;;6.50;4.00;;;;;;;;;;6132652;23;20757;-93
2023/05/14 12:02:19;;;;;;;6.82;3.40;;;;;;;;;;6132555;23;20017;-92
2023/05/14 12:05:06;;;;;;;9.05;3.53;;;;;;;;;;6131999;23;20076;-93
2023/05/14 12:07:50;;;;;;;6.85;3.50;;;;;;;;;;6131660;23;20025;-90
2023/05/14 12:10:41;;;;;;;5.53;3.25;;;;;;;;;;6154391;23;20016;-91
2023/05/14 12:13:29;;;;;;;5.13;2.67;;;;;;;;;;6132883;23;20067;-94
2023/05/14 12:16:16;;;;;;;6.20;2.42;;;;;;;;;;6131930;23;20105;-92
2023/05/14 12:19:01;;;;;;;4.57;2.80;;;;;;;;;;6153901;23;20083;-93
2023/05/14 12:21:49;;;;;;;6.00;2.67;;;;;;;;;;6133168;23;20020;-92
2023/05/14 12:24:34;;;;;;;6.47;3.20;;;;;;;;;;6133266;23;20032;-92
2023/05/14 12:27:21;;;;;;;5.55;2.97;;;;;;;;;;6154392;23;20044;-92
2023/05/14 12:30:08;;;;;;;4.20;2.85;;;;;;;;;;6130950;23;20388;-93
2023/05/14 12:32:56;;;;;;;5.70;2.83;;;;;;;;;;6153121;23;20025;-95
2023/05/14 12:35:41;;;;;;;7.80;3.05;;;;;;;;;;6130931;23;20181;-91
2023/05/14 12:38:26;;;;;;;5.45;2.70;;;;;;;;;;6131848;23;20028;-92
2023/05/14 12:41:13;;;;;;;3.72;2.60;;;;;;;;;;6131550;23;20021;-92
2023/05/14 12:43:58;;;;;;;11.88;3.00;;;;;;;;;;6131583;23;20024;-95
2023/05/14 12:46:42;;;;;;;6.68;2.90;;;;;;;;;;6132424;23;20017;-93
2023/05/14 12:49:27;;;;;;;3.83;2.15;;;;;;;;;;6132404;23;20013;-91
2023/05/14 12:52:12;;;;;;;3.95;2.67;;;;;;;;;;6154045;23;20734;-91
2023/05/14 12:54:57;;;;;;;4.05;2.60;;;;;;;;;;6140628;23;20017;-91
2023/05/14 12:57:49;;;;;;;6.40;2.83;;;;;;;;;;6132642;23;20024;-93
2023/05/14 13:00:34;;;;;;;6.57;2.93;;;;;;;;;;6132081;23;20020;-92
2023/05/14 13:03:19;;;;;;;11.13;2.90;;;;;;;;;;6152328;23;20024;-91
2023/05/14 13:06:04;;;;;;;9.32;2.97;;;;;;;;;;6153467;23;20075;-92
2023/05/14 13:08:51;;;;;;;6.97;2.60;;;;;;;;;;6123702;23;20025;-92
2023/05/14 13:11:39;;;;;;;5.35;2.70;;;;;;;;;;6124968;23;20096;-92
2023/05/14 13:14:23;;;;;;;5.38;3.10;;;;;;;;;;6124751;23;20017;-91
2023/05/14 13:17:08;;;;;;;5.95;2.80;;;;;;;;;;6124051;23;20047;-92
2023/05/14 13:19:53;;;;;;;5.00;2.58;;;;;;;;;;6125269;23;20017;-92
2023/05/14 13:22:42;;;;;;;10.52;2.60;;;;;;;;;;6103361;23;20016;-90
2023/05/14 13:25:27;;;;;;;6.35;3.20;;;;;;;;;;6104382;23;20061;-91
2023/05/14 13:28:11;;;;;;;5.15;3.10;;;;;;;;;;6111303;23;20017;-91
2023/05/14 13:31:04;;;;;;;7.60;2.88;;;;;;;;;;6141997;23;20064;-92
2023/05/14 13:33:49;;;;;;;7.50;3.00;;;;;;;;;;6141177;23;20041;-91
2023/05/14 13:36:38;;;;;;;6.72;2.90;;;;;;;;;;6128060;23;20090;-91
2023/05/14 13:39:25;;;;;;;4.43;2.92;;;;;;;;;;6147836;23;20025;-92
2023/05/14 13:42:10;;;;;;;7.40;2.80;;;;;;;;;;6132072;23;20503;-91
2023/05/14 13:44:55;;;;;;;6.30;3.10;;;;;;;;;;6107683;23;20020;-92
2023/05/14 13:47:40;;;;;;;7.40;2.50;;;;;;;;;;6106272;23;20020;-90
2023/05/14 13:50:24;;;;;;;6.95;2.55;;;;;;;;;;6106716;23;20416;-91
2023/05/14 13:53:09;;;;;;;4.47;2.88;;;;;;;;;;6126553;23;20348;-92
2023/05/14 13:56:00;;;;;;;6.65;2.47;;;;;;;;;;6104180;23;20077;-91
2023/05/14 13:58:45;;;;;;;6.00;3.50;;;;;;;;;;6103427;23;20470;-91
2023/05/14 14:01:30;;;;;;;7.15;2.83;;;;;;;;;;6104050;23;20013;-90
2023/05/14 14:04:15;;;;;;;7.55;2.92;;;;;;;;;;6103265;23;20520;-89
2023/05/14 14:07:00;;;;;;;4.68;2.33;;;;;;;;;;6135331;23;20036;-91
2023/05/14 14:09:44;;;;;;;4.32;2.10;;;;;;;;;;6133155;23;20020;-91
2023/05/14 14:12:29;;;;;;;5.57;2.80;;;;;;;;;;6134006;23;20486;-93
2023/05/14 14:15:14;;;;;;;4.00;2.60;;;;;;;;;;6132576;23;20076;-90
2023/05/14 14:17:59;;;;;;;6.80;2.60;;;;;;;;;;6132680;23;20016;-92
2023/05/14 14:20:44;;;;;;;7.72;2.83;;;;;;;;;;6155538;23;20084;-89
2023/05/14 14:23:28;;;;;;;7.47;2.50;;;;;;;;;;6154739;23;20032;-92
2023/05/14 14:26:13;;;;;;;5.15;2.78;;;;;;;;;;6154774;23;20446;-90
2023/05/14 14:28:57;;;;;;;6.97;2.70;;;;;;;;;;6154120;23;20020;-89
2023/05/14 14:31:44;;;;;;;7.07;2.60;;;;;;;;;;6133005;23;20017;-91
2023/05/14 14:34:29;;;;;;;7.40;2.50;;;;;;;;;;6132167;23;20064;-92
2023/05/14 14:37:13;;;;;;;11.52;2.80;;;;;;;;;;6132154;23;20016;-91
2023/05/14 14:39:58;;;;;;;5.88;2.85;;;;;;;;;;6132812;23;20060;-90
2023/05/14 14:42:43;;;;;;;6.07;2.53;;;;;;;;;;6153918;23;20036;-90
2023/05/14 14:45:30;;;;;;;8.77;2.70;;;;;;;;;;6132285;23;20021;-92
2023/05/14 14:48:33;;;;;;;6.80;2.60;;;;;;;;;;6154163;23;20044;-92
2023/05/14 14:51:18;;;;;;;6.30;2.50;;;;;;;;;;6155257;23;20391;-92
2023/05/14 14:54:03;;;;;;;6.60;2.67;;;;;;;;;;6133453;23;20272;-92
2023/05/14 14:56:51;;;;;;;8.77;2.55;;;;;;;;;;6155175;23;20048;-92
2023/05/14 14:59:35;;;;;;;4.53;2.85;;;;;;;;;;6153424;23;20341;-92
2023/05/14 15:02:20;;;;;;;3.63;2.25;;;;;;;;;;6131744;23;20016;-91
2023/05/14 15:05:05;;;;;;;6.78;2.58;;;;;;;;;;6157899;23;20101;-91
2023/05/14 15:07:49;;;;;;;3.55;2.35;;;;;;;;;;6133360;23;20491;-92
2023/05/14 15:10:36;;;;;;;4.07;2.72;;;;;;;;;;6132879;23;20020;-93
2023/05/14 15:13:21;;;;;;;5.65;2.50;;;;;;;;;;6132655;23;20016;-92
2023/05/14 15:16:06;;;;;;;7.75;2.58;;;;;;;;;;6132774;23;20032;-90
2023/05/14 15:18:51;;;;;;;4.47;2.70;;;;;;;;;;6144431;23;20400;-93
2023/05/14 15:21:36;;;;;;;4.30;2.60;;;;;;;;;;6154941;23;20016;-93
2023/05/14 15:24:22;;;;;;;7.18;2.47;;;;;;;;;;6132929;23;20024;-92
2023/05/14 15:27:07;;;;;;;6.22;2.63;;;;;;;;;;6132907;23;20061;-91
2023/05/14 15:29:51;;;;;;;8.55;2.83;;;;;;;;;;6132434;23;20063;-93
2023/05/14 15:32:36;;;;;;;3.67;2.33;;;;;;;;;;6153043;23;20024;-93
2023/05/14 15:35:21;;;;;;;4.30;2.67;;;;;;;;;;6152684;23;20039;-93
2023/05/14 15:38:06;;;;;;;6.13;2.58;;;;;;;;;;6154523;23;20049;-93
2023/05/14 15:40:57;;;;;;;4.25;2.50;;;;;;;;;;6129582;23;20070;-92
2023/05/14 15:43:42;;;;;;;4.05;2.05;;;;;;;;;;6153280;23;20064;-93
2023/05/14 15:46:27;;;;;;;5.75;3.03;;;;;;;;;;6152618;23;20016;-91
2023/05/14 15:49:12;;;;;;;7.05;2.88;;;;;;;;;;6153121;23;20048;-92
2023/05/14 15:51:59;;;;;;;5.78;2.85;;;;;;;;;;6132742;23;20016;-91
2023/05/14 15:54:48;;;;;;;10.75;3.13;;;;;;;;;;6131277;23;20021;-92
2023/05/14 15:57:33;;;;;;;6.03;3.08;;;;;;;;;;6131862;23;20507;-92
2023/05/14 16:00:18;;;;;;;5.22;2.67;;;;;;;;;;6153724;23;20557;-95
2023/05/14 16:03:06;;;;;;;8.10;3.00;;;;;;;;;;6155312;23;20043;-93
2023/05/14 16:06:21;;;;;;;6.07;3.30;;;;;;;;;;6157944;23;20336;-96
2023/05/14 16:09:13;;;;;;;6.93;3.20;;;;;;;;;;6134495;23;20107;-93
2023/05/14 16:11:58;;;;;;;8.68;3.80;;;;;;;;;;6129512;23;20047;-94
2023/05/14 16:14:44;;;;;;;6.22;3.38;;;;;;;;;;6130829;23;20044;-94
2023/05/14 16:17:38;;;;;;;6.43;3.38;;;;;;;;;;6131516;23;20523;-94
2023/05/14 16:20:26;;;;;;;7.10;3.80;;;;;;;;;;6131545;23;20066;-93